HDAM/JIB METAR and TAF weather

Enter ICAO airport designator
Station Type Date Time Source
HDAM METAR 2019/05/25 12:30 UTC NOAA

HDAM 251230Z 08010KT 9999 FEW023 35/22 Q1008


Station Type Date Time Source
HDAM Decoded METAR 2019/05/25 12:30 UTC NOAA

Djibouti \ Ambouli, Djibouti (HDAM) 11-33N 043-10E
May 25, 2019 - 08:30 AM EDT / 2019.05.25 1230 UTC
Wind: from the E (080 degrees) at 12 MPH (10 KT):0
Visibility: greater than 7 mile(s):0
Sky conditions: mostly clear
Temperature: 95 F (35 C)
Heat index: 102.6 F (39.2 C):1
Dew Point: 71 F (22 C)
Relative Humidity: 46%
Pressure (altimeter): 29.77 in. Hg (1008 hPa)
ob: HDAM 251230Z 08010KT 9999 FEW023 35/22 Q1008
cycle: 12

Station Type Date Time Source
HDAM TAF 2019/05/25 06:03 UTC NOAA

TAF TAF HDAM 250500Z 2506/2606 08010KT 9999 FEW023
BECMG2515/2518 VRB03KT
BECMG2600/2603 00000KT FEW023

Example: see airport list